Time;durP1;ratioP1;P1;durP2;ratioP2;P2;SDS_P1;SDS_P2;PMS_P1;PMS_P2;Temp;Humidity;BMP_temperature;BMP_pressure;BME280_temperature;BME280_humidity;BME280_pressure;Samples;Min_cycle;Max_cycle;Signal;HPM_P1;HPM_P2
2021/06/24 00:00:57;;;;;;;2.38;2.17;;;13.60;99.90;;;;;;5032769;28;20041;-79
2021/06/24 00:03:27;;;;;;;3.75;3.28;;;13.40;99.90;;;;;;5047092;28;20112;-79
2021/06/24 00:05:53;;;;;;;4.43;2.30;;;13.40;99.90;;;;;;5033683;28;20436;-79
2021/06/24 00:08:20;;;;;;;2.83;2.35;;;13.50;99.90;;;;;;5032849;28;20117;-79
2021/06/24 00:10:47;;;;;;;4.32;2.55;;;13.50;99.90;;;;;;5035916;28;20044;-79
2021/06/24 00:13:14;;;;;;;2.75;2.15;;;13.50;99.90;;;;;;5048151;28;20025;-79
2021/06/24 00:15:40;;;;;;;3.78;2.53;;;13.30;99.90;;;;;;5050498;28;20479;-79
2021/06/24 00:18:07;;;;;;;2.85;2.40;;;13.40;99.90;;;;;;5054790;28;20112;-79
2021/06/24 00:20:33;;;;;;;2.53;2.33;;;13.30;99.90;;;;;;5049853;28;20045;-79
2021/06/24 00:22:59;;;;;;;5.80;2.45;;;13.30;99.90;;;;;;5054702;28;20082;-79
2021/06/24 00:25:25;;;;;;;3.05;2.15;;;13.20;99.90;;;;;;5056181;28;20033;-79
2021/06/24 00:27:51;;;;;;;5.55;2.35;;;13.30;99.90;;;;;;5055701;28;20021;-79
2021/06/24 00:30:18;;;;;;;3.42;2.72;;;13.10;99.90;;;;;;5049751;28;20569;-79
2021/06/24 00:32:43;;;;;;;2.92;2.30;;;13.30;99.90;;;;;;5035594;28;20079;-79
2021/06/24 00:35:11;;;;;;;4.32;2.45;;;13.30;99.90;;;;;;5042810;28;20390;-79
2021/06/24 00:37:37;;;;;;;3.00;2.63;;;13.20;99.90;;;;;;5034283;28;20132;-80
2021/06/24 00:40:05;;;;;;;4.95;2.40;;;13.10;99.90;;;;;;5034173;28;20416;-79
2021/06/24 00:42:31;;;;;;;2.80;2.47;;;13.10;99.90;;;;;;5035497;28;20030;-80
2021/06/24 00:44:58;;;;;;;4.47;2.88;;;13.20;99.90;;;;;;5035584;28;20057;-80
2021/06/24 00:47:24;;;;;;;5.43;2.60;;;13.40;99.90;;;;;;5035447;28;20033;-80
2021/06/24 00:49:50;;;;;;;4.57;2.50;;;13.50;99.90;;;;;;5035159;28;20036;-80
2021/06/24 00:52:16;;;;;;;3.13;2.58;;;13.60;99.90;;;;;;5054019;28;20033;-79
2021/06/24 00:54:42;;;;;;;6.72;2.72;;;13.40;99.90;;;;;;5053911;28;20032;-79
2021/06/24 00:57:08;;;;;;;7.82;2.70;;;13.50;99.90;;;;;;5053945;28;20024;-79
2021/06/24 00:59:35;;;;;;;5.28;3.10;;;13.40;99.90;;;;;;5055335;28;20033;-79
2021/06/24 01:02:03;;;;;;;5.30;2.70;;;13.30;99.90;;;;;;5041417;28;20497;-80
2021/06/24 01:04:28;;;;;;;3.22;2.72;;;13.10;99.90;;;;;;5035307;28;20101;-79
2021/06/24 01:06:54;;;;;;;3.25;2.95;;;13.10;99.90;;;;;;5035264;28;20481;-79
2021/06/24 01:09:20;;;;;;;3.47;2.17;;;13.10;99.90;;;;;;5045843;28;20109;-79
2021/06/24 01:11:46;;;;;;;2.83;2.20;;;13.00;99.90;;;;;;5041072;28;20440;-80
2021/06/24 01:14:13;;;;;;;3.28;2.97;;;13.00;99.90;;;;;;5054962;28;20032;-80
2021/06/24 01:16:39;;;;;;;4.22;2.38;;;13.10;99.90;;;;;;5054637;28;20545;-80
2021/06/24 01:19:06;;;;;;;3.53;2.35;;;13.10;99.90;;;;;;5053350;28;20516;-80
2021/06/24 01:21:33;;;;;;;3.97;2.40;;;13.10;99.90;;;;;;5053714;28;20036;-79
2021/06/24 01:23:59;;;;;;;4.20;2.47;;;13.10;99.90;;;;;;5054906;28;20029;-80
2021/06/24 01:26:25;;;;;;;3.20;2.45;;;13.10;99.90;;;;;;5055030;28;20067;-80
2021/06/24 01:28:51;;;;;;;2.63;2.42;;;13.10;99.90;;;;;;5038458;28;20492;-79
2021/06/24 01:31:19;;;;;;;4.78;2.28;;;12.90;99.90;;;;;;5032922;28;20060;-80
2021/06/24 01:33:45;;;;;;;4.45;2.00;;;12.70;99.90;;;;;;5034421;28;20500;-80
2021/06/24 01:36:13;;;;;;;2.92;1.98;;;12.60;99.90;;;;;;5046914;28;20044;-80
2021/06/24 01:38:39;;;;;;;10.68;2.15;;;12.50;99.90;;;;;;5054642;28;20034;-79
2021/06/24 01:41:05;;;;;;;3.33;2.22;;;12.40;99.90;;;;;;5054378;28;20082;-79
2021/06/24 01:43:31;;;;;;;6.38;2.50;;;12.30;99.90;;;;;;5054369;28;20108;-79
2021/06/24 01:45:58;;;;;;;6.22;2.50;;;12.20;99.90;;;;;;5054102;28;20028;-80
2021/06/24 01:48:26;;;;;;;4.20;2.22;;;12.00;99.90;;;;;;5054422;28;20021;-80
2021/06/24 01:50:55;;;;;;;10.10;2.28;;;12.10;99.90;;;;;;5054031;28;20055;-80
2021/06/24 01:53:20;;;;;;;10.10;2.55;;;12.20;99.90;;;;;;5053963;28;20028;-80
2021/06/24 01:55:46;;;;;;;5.28;2.25;;;12.20;99.90;;;;;;5053221;28;20108;-79
2021/06/24 01:58:22;;;;;;;3.00;2.50;;;12.20;99.90;;;;;;5053131;28;20540;-80
2021/06/24 02:00:49;;;;;;;2.58;1.92;;;12.30;99.90;;;;;;5053663;28;20052;-79
2021/06/24 02:03:15;;;;;;;2.30;2.08;;;12.40;99.90;;;;;;5053960;28;20066;-79
2021/06/24 02:05:43;;;;;;;3.95;2.40;;;12.40;99.90;;;;;;5049035;28;20436;-80
2021/06/24 02:08:23;;;;;;;2.72;2.53;;;12.40;99.90;;;;;;5049409;28;20063;-79
2021/06/24 02:10:49;;;;;;;5.15;2.45;;;12.50;99.90;;;;;;5053486;28;20057;-80
2021/06/24 02:13:15;;;;;;;3.28;2.05;;;12.60;99.90;;;;;;5053360;28;20040;-80
2021/06/24 02:15:42;;;;;;;4.80;2.40;;;12.70;99.90;;;;;;5053560;28;20025;-80
2021/06/24 02:18:07;;;;;;;3.65;2.72;;;12.60;99.90;;;;;;5053614;28;20516;-79
2021/06/24 02:20:34;;;;;;;4.38;2.58;;;12.50;99.90;;;;;;5053795;28;20037;-79
2021/06/24 02:22:59;;;;;;;3.85;2.90;;;12.30;99.90;;;;;;5036116;28;20557;-80
2021/06/24 02:25:26;;;;;;;24.08;4.50;;;12.20;99.90;;;;;;5033488;28;20045;-79
2021/06/24 02:27:53;;;;;;;51.97;4.70;;;12.30;99.90;;;;;;5033569;28;20025;-79
2021/06/24 02:30:19;;;;;;;23.10;3.72;;;12.10;99.90;;;;;;5033226;28;20105;-79
2021/06/24 02:32:45;;;;;;;18.92;3.28;;;12.00;99.90;;;;;;5033153;28;20108;-80
2021/06/24 02:35:13;;;;;;;29.25;2.97;;;12.10;99.90;;;;;;5033382;28;20109;-80
2021/06/24 02:37:41;;;;;;;15.18;3.05;;;11.90;99.90;;;;;;5033567;28;20029;-80
2021/06/24 02:40:08;;;;;;;4.13;2.38;;;11.80;99.90;;;;;;5037565;28;20031;-80
2021/06/24 02:42:34;;;;;;;7.05;1.98;;;12.00;99.90;;;;;;5052918;28;20059;-80
2021/06/24 02:45:00;;;;;;;7.65;2.40;;;12.10;99.90;;;;;;5053311;28;20614;-80
2021/06/24 02:47:26;;;;;;;5.32;2.60;;;12.10;99.90;;;;;;5053179;28;20025;-80
2021/06/24 02:49:52;;;;;;;4.13;2.83;;;12.10;99.90;;;;;;5053205;28;20479;-80
2021/06/24 02:52:18;;;;;;;3.45;2.20;;;12.10;99.90;;;;;;5040091;28;20017;-80
2021/06/24 02:54:44;;;;;;;3.33;2.55;;;12.20;99.90;;;;;;5047169;28;20033;-80
2021/06/24 02:57:09;;;;;;;4.72;2.47;;;12.00;99.90;;;;;;5038114;28;20512;-80
2021/06/24 02:59:36;;;;;;;2.28;2.03;;;11.90;99.90;;;;;;5033013;28;20041;-80
2021/06/24 03:02:04;;;;;;;3.28;2.13;;;11.80;99.90;;;;;;5031810;28;20028;-80
2021/06/24 03:04:30;;;;;;;3.15;2.30;;;11.80;99.90;;;;;;5033067;28;20029;-80
2021/06/24 03:06:55;;;;;;;2.92;2.28;;;11.80;99.90;;;;;;5033011;28;20576;-80
2021/06/24 03:09:21;;;;;;;2.90;2.53;;;11.80;99.90;;;;;;5032840;28;20049;-80
2021/06/24 03:11:48;;;;;;;5.32;2.83;;;11.90;99.90;;;;;;5032793;28;20100;-80
2021/06/24 03:14:14;;;;;;;3.00;1.92;;;11.90;99.90;;;;;;5031213;28;20064;-80
2021/06/24 03:16:41;;;;;;;4.25;1.70;;;11.90;99.90;;;;;;5032838;28;20021;-80
2021/06/24 03:19:08;;;;;;;4.95;1.55;;;11.70;99.90;;;;;;5032504;28;20049;-80
2021/06/24 03:21:34;;;;;;;5.95;1.88;;;11.50;99.90;;;;;;5032350;28;20029;-80
2021/06/24 03:24:00;;;;;;;3.65;1.40;;;11.40;99.90;;;;;;5032799;28;20096;-80
2021/06/24 03:26:26;;;;;;;3.50;1.33;;;11.30;99.90;;;;;;5032313;28;20017;-80
2021/06/24 03:28:51;;;;;;;1.85;1.55;;;11.10;99.90;;;;;;5032617;28;20018;-80
2021/06/24 03:31:18;;;;;;;2.33;1.58;;;11.10;99.90;;;;;;5048683;28;20052;-80
2021/06/24 03:33:43;;;;;;;5.47;1.88;;;11.10;99.90;;;;;;5038437;28;20093;-80
2021/06/24 03:36:09;;;;;;;1.50;1.40;;;11.40;99.90;;;;;;5032650;28;20120;-80
2021/06/24 03:38:35;;;;;;;4.55;1.60;;;11.50;99.90;;;;;;5032401;28;20033;-80
2021/06/24 03:41:01;;;;;;;3.38;1.80;;;11.70;99.90;;;;;;5032281;28;20029;-80
2021/06/24 03:43:27;;;;;;;2.05;1.50;;;11.80;99.90;;;;;;5031884;28;20033;-80
2021/06/24 03:45:53;;;;;;;1.67;1.58;;;11.90;99.90;;;;;;5031554;28;20104;-80
2021/06/24 03:48:19;;;;;;;2.72;1.33;;;12.00;99.90;;;;;;5031138;28;20036;-80
2021/06/24 03:50:45;;;;;;;6.45;1.83;;;12.00;99.90;;;;;;5032377;28;20026;-80
2021/06/24 03:53:10;;;;;;;4.97;1.50;;;12.00;99.90;;;;;;5050713;28;20052;-80
2021/06/24 03:55:43;;;;;;;2.00;1.70;;;12.00;99.90;;;;;;5050844;28;20107;-80
2021/06/24 03:58:11;;;;;;;4.35;1.88;;;12.00;99.90;;;;;;5036374;28;20021;-79
2021/06/24 04:00:41;;;;;;;2.45;1.60;;;12.00;99.90;;;;;;5048294;28;20100;-80
2021/06/24 04:03:08;;;;;;;17.35;2.97;;;11.90;99.90;;;;;;5045240;28;20108;-80
2021/06/24 04:05:34;;;;;;;8.05;1.65;;;11.70;99.90;;;;;;5040244;28;20056;-80
2021/06/24 04:08:01;;;;;;;1.45;1.35;;;11.40;99.90;;;;;;5051208;28;20487;-80
2021/06/24 04:10:27;;;;;;;2.63;1.98;;;11.30;99.90;;;;;;5051960;28;20156;-80
2021/06/24 04:12:54;;;;;;;1.88;1.50;;;11.40;99.90;;;;;;5051548;28;20028;-80
2021/06/24 04:15:21;;;;;;;1.60;1.50;;;11.50;99.90;;;;;;5032041;28;20076;-80
2021/06/24 04:17:47;;;;;;;2.63;1.30;;;11.30;99.90;;;;;;5042850;28;20021;-80
2021/06/24 04:20:13;;;;;;;1.40;1.27;;;11.00;99.90;;;;;;5038639;28;20453;-80
2021/06/24 04:22:39;;;;;;;2.80;1.23;;;10.90;99.90;;;;;;5030646;28;20033;-80
2021/06/24 04:25:05;;;;;;;4.32;1.92;;;11.00;99.90;;;;;;5046361;28;20464;-80
2021/06/24 04:27:31;;;;;;;6.00;1.45;;;11.00;99.90;;;;;;5049190;28;20516;-80
2021/06/24 04:29:57;;;;;;;1.63;1.52;;;11.10;99.90;;;;;;5051774;28;20017;-80
2021/06/24 04:32:23;;;;;;;2.20;2.10;;;11.00;99.90;;;;;;5052311;28;20033;-80
2021/06/24 04:34:48;;;;;;;3.38;1.83;;;11.10;99.90;;;;;;5048665;28;20032;-80
2021/06/24 04:37:14;;;;;;;5.78;1.58;;;11.20;99.90;;;;;;5062878;28;20024;-80
2021/06/24 04:39:40;;;;;;;4.55;1.60;;;11.20;99.90;;;;;;5049420;28;20029;-80
2021/06/24 04:42:06;;;;;;;11.88;1.58;;;11.10;99.90;;;;;;5052503;28;20037;-79
2021/06/24 04:44:31;;;;;;;30.25;2.03;;;11.10;99.90;;;;;;5038661;28;20025;-80
2021/06/24 04:46:57;;;;;;;27.35;2.45;;;11.10;99.90;;;;;;5052388;28;20029;-80
2021/06/24 04:49:24;;;;;;;14.52;1.73;;;11.10;99.90;;;;;;5046951;28;20099;-79
2021/06/24 04:51:50;;;;;;;11.57;1.83;;;11.10;99.90;;;;;;5046866;28;20034;-79
2021/06/24 04:54:16;;;;;;;7.20;1.40;;;11.10;99.90;;;;;;5047224;28;20029;-79
2021/06/24 04:56:41;;;;;;;3.38;1.63;;;11.10;99.90;;;;;;5057377;28;20026;-79
2021/06/24 04:59:07;;;;;;;3.70;2.20;;;11.10;99.90;;;;;;5042067;28;20038;-79
2021/06/24 05:01:33;;;;;;;1.40;1.30;;;11.10;99.90;;;;;;5044497;28;20405;-79
2021/06/24 05:03:58;;;;;;;16.48;1.85;;;11.20;99.90;;;;;;5035345;28;20546;-80
2021/06/24 05:06:24;;;;;;;1.50;1.40;;;11.20;99.90;;;;;;5034686;28;20100;-80
2021/06/24 05:08:50;;;;;;;4.55;1.92;;;11.20;99.90;;;;;;5034289;28;20026;-80
2021/06/24 05:11:16;;;;;;;4.53;2.20;;;11.20;99.90;;;;;;5035006;28;20053;-80
2021/06/24 05:13:42;;;;;;;1.77;1.67;;;11.30;99.90;;;;;;5033869;28;20454;-80
2021/06/24 05:16:08;;;;;;;1.50;1.40;;;11.30;99.90;;;;;;5035040;28;20142;-80
2021/06/24 05:18:35;;;;;;;1.63;1.52;;;11.20;99.90;;;;;;5034751;28;20045;-80
2021/06/24 05:21:01;;;;;;;6.90;2.10;;;11.20;99.90;;;;;;5034852;28;20470;-80
2021/06/24 05:23:27;;;;;;;2.30;1.85;;;11.20;99.90;;;;;;5034750;28;20108;-80
2021/06/24 05:25:53;;;;;;;2.03;1.70;;;11.30;99.90;;;;;;5034696;28;20478;-80
2021/06/24 05:28:19;;;;;;;3.17;1.60;;;11.70;99.90;;;;;;5035003;28;20033;-80
2021/06/24 05:30:48;;;;;;;4.70;1.98;;;12.00;99.90;;;;;;5034701;28;20099;-80
2021/06/24 05:33:16;;;;;;;1.58;1.40;;;12.20;99.90;;;;;;5034639;28;20075;-80
2021/06/24 05:35:42;;;;;;;2.28;1.85;;;12.40;99.90;;;;;;5034770;28;20076;-80
2021/06/24 05:38:11;;;;;;;5.05;2.00;;;12.60;99.90;;;;;;5034157;28;20030;-81
2021/06/24 05:40:40;;;;;;;3.35;1.88;;;12.70;99.90;;;;;;5034591;28;20512;-80
2021/06/24 05:43:06;;;;;;;5.73;2.53;;;12.80;99.90;;;;;;5034669;28;20096;-80
2021/06/24 05:45:32;;;;;;;3.63;2.17;;;13.00;99.90;;;;;;5034517;28;20096;-81
2021/06/24 05:47:58;;;;;;;7.38;2.28;;;13.00;99.90;;;;;;5034492;28;20052;-80
2021/06/24 05:50:26;;;;;;;4.03;2.03;;;13.10;99.90;;;;;;5034589;28;20485;-80
2021/06/24 05:52:56;;;;;;;2.03;1.92;;;13.10;99.90;;;;;;5034043;28;20037;-81
2021/06/24 05:58:11;;;;;;;2.67;2.00;;;13.30;99.90;;;;;;5034559;28;20095;-80
2021/06/24 06:00:38;;;;;;;2.22;1.85;;;13.30;99.90;;;;;;5050765;28;20021;-80
2021/06/24 06:03:04;;;;;;;4.28;1.60;;;13.30;99.90;;;;;;5050405;28;20515;-80
2021/06/24 06:05:30;;;;;;;1.80;1.70;;;13.50;99.90;;;;;;5033922;28;20029;-80
2021/06/24 06:07:56;;;;;;;1.88;1.77;;;13.90;99.90;;;;;;5042603;28;20031;-81
2021/06/24 06:10:21;;;;;;;1.98;1.85;;;14.10;99.90;;;;;;5045784;28;20029;-80
2021/06/24 06:12:47;;;;;;;2.63;1.50;;;14.30;99.90;;;;;;5034071;28;20026;-81
2021/06/24 06:15:13;;;;;;;4.53;1.67;;;14.30;99.90;;;;;;5034132;28;20049;-81
2021/06/24 06:17:39;;;;;;;1.60;1.50;;;14.50;99.90;;;;;;5034037;28;20021;-80
2021/06/24 06:20:06;;;;;;;3.65;1.80;;;14.70;99.90;;;;;;5033106;28;20037;-81
2021/06/24 06:22:32;;;;;;;1.80;1.52;;;14.80;99.90;;;;;;5033848;28;20168;-80
2021/06/24 06:24:58;;;;;;;3.15;1.25;;;14.70;99.90;;;;;;5033744;28;20046;-81
2021/06/24 06:27:23;;;;;;;1.90;1.30;;;14.70;99.90;;;;;;5033799;28;20083;-80
2021/06/24 06:29:49;;;;;;;1.90;1.27;;;14.80;99.90;;;;;;5033717;28;20036;-81
2021/06/24 06:32:16;;;;;;;1.63;1.52;;;14.60;99.90;;;;;;5033720;28;20033;-81
2021/06/24 06:34:42;;;;;;;1.40;1.30;;;14.70;99.90;;;;;;5033719;28;20026;-80
2021/06/24 06:37:08;;;;;;;1.55;1.30;;;14.80;99.90;;;;;;5033566;28;20037;-81
2021/06/24 06:39:33;;;;;;;1.00;1.00;;;15.00;99.90;;;;;;5033717;28;20532;-81
2021/06/24 06:41:59;;;;;;;1.30;1.20;;;15.20;99.90;;;;;;5032815;28;20512;-81
2021/06/24 06:44:25;;;;;;;1.10;1.00;;;15.30;99.90;;;;;;5033274;28;20029;-81
2021/06/24 06:46:51;;;;;;;2.55;1.02;;;15.40;99.90;;;;;;5033261;28;20108;-81
2021/06/24 06:49:17;;;;;;;4.45;1.45;;;15.30;99.90;;;;;;5033116;28;20030;-81
2021/06/24 06:51:43;;;;;;;1.80;1.60;;;15.20;99.90;;;;;;5033322;28;20485;-81
2021/06/24 06:54:08;;;;;;;1.50;1.38;;;15.10;99.90;;;;;;5041917;28;20457;-81
2021/06/24 06:56:34;;;;;;;3.10;1.35;;;15.20;99.90;;;;;;5052909;28;20068;-81
2021/06/24 06:59:01;;;;;;;1.30;1.10;;;15.40;99.90;;;;;;5053108;28;20056;-81
2021/06/24 07:01:27;;;;;;;1.27;1.17;;;15.60;99.90;;;;;;5053156;28;20100;-81
2021/06/24 07:03:52;;;;;;;1.83;1.30;;;15.70;99.90;;;;;;5052768;28;20418;-81
2021/06/24 07:06:18;;;;;;;1.38;0.90;;;15.70;99.90;;;;;;5052846;28;20032;-81
2021/06/24 07:08:45;;;;;;;1.48;1.10;;;15.70;99.90;;;;;;5052886;28;20392;-81
2021/06/24 07:11:11;;;;;;;3.13;1.02;;;15.80;99.90;;;;;;5052897;28;20025;-81
2021/06/24 07:13:37;;;;;;;4.72;0.90;;;15.60;99.90;;;;;;5052794;28;20027;-81
2021/06/24 07:16:03;;;;;;;1.58;0.60;;;15.70;99.90;;;;;;5052666;28;20052;-81
2021/06/24 07:18:28;;;;;;;0.85;0.82;;;15.60;99.90;;;;;;5052041;28;20565;-81
2021/06/24 07:20:54;;;;;;;1.40;1.00;;;16.00;99.90;;;;;;5052164;28;20032;-81
2021/06/24 07:23:20;;;;;;;1.45;1.35;;;16.50;99.90;;;;;;5052619;28;20060;-81
2021/06/24 07:25:46;;;;;;;1.92;0.85;;;16.70;99.90;;;;;;5052697;28;20432;-81
2021/06/24 07:28:12;;;;;;;1.00;0.90;;;17.30;99.90;;;;;;5052449;28;20021;-81
2021/06/24 07:30:38;;;;;;;6.35;1.60;;;17.60;99.90;;;;;;5052583;28;20538;-81
2021/06/24 07:33:05;;;;;;;0.80;0.80;;;17.20;99.90;;;;;;5052022;28;20108;-81
2021/06/24 07:35:31;;;;;;;1.60;0.90;;;17.20;99.90;;;;;;5052409;28;20400;-81
2021/06/24 07:37:57;;;;;;;0.85;0.85;;;17.00;99.90;;;;;;5052451;28;20024;-81
2021/06/24 07:40:22;;;;;;;0.70;0.70;;;17.00;99.90;;;;;;5052633;28;20040;-81
2021/06/24 07:42:49;;;;;;;2.58;1.17;;;16.80;99.90;;;;;;5051068;28;20040;-81
2021/06/24 07:45:15;;;;;;;1.02;0.95;;;16.90;99.90;;;;;;5052353;28;20075;-81
2021/06/24 07:47:41;;;;;;;1.17;0.75;;;16.70;99.90;;;;;;5050816;28;20031;-81
2021/06/24 07:50:07;;;;;;;0.77;0.77;;;16.50;99.90;;;;;;5052192;28;20033;-81
2021/06/24 07:52:33;;;;;;;2.88;1.05;;;16.40;99.90;;;;;;5052387;28;20481;-81
2021/06/24 07:54:59;;;;;;;1.15;1.02;;;16.30;99.90;;;;;;5035390;28;20120;-81
2021/06/24 07:57:24;;;;;;;0.77;0.77;;;16.20;99.90;;;;;;5032298;28;20405;-81
2021/06/24 07:59:50;;;;;;;1.35;1.17;;;16.10;99.90;;;;;;5032474;28;20399;-82
2021/06/24 08:02:16;;;;;;;0.77;0.73;;;16.10;99.90;;;;;;5032137;28;20477;-81
2021/06/24 08:04:42;;;;;;;0.82;0.82;;;16.20;99.90;;;;;;5032308;28;20147;-82
2021/06/24 08:07:10;;;;;;;0.88;0.88;;;16.20;99.90;;;;;;5032222;28;20092;-81
2021/06/24 08:09:35;;;;;;;1.95;0.93;;;16.40;99.90;;;;;;5032311;28;20041;-82
2021/06/24 08:12:01;;;;;;;2.00;0.85;;;16.60;99.90;;;;;;5032126;28;20444;-81
2021/06/24 08:14:27;;;;;;;0.93;0.90;;;16.70;99.90;;;;;;5031106;28;20504;-81
2021/06/24 08:16:53;;;;;;;3.10;0.60;;;16.50;99.90;;;;;;5030706;28;20030;-81
2021/06/24 08:19:19;;;;;;;2.47;0.63;;;16.60;99.90;;;;;;5031790;28;20049;-81
2021/06/24 08:21:45;;;;;;;1.88;0.65;;;16.60;99.90;;;;;;5030904;28;20033;-81
2021/06/24 08:24:11;;;;;;;0.70;0.70;;;16.80;99.90;;;;;;5030864;28;20044;-82
2021/06/24 08:26:37;;;;;;;2.10;0.70;;;16.80;99.90;;;;;;5032039;28;20026;-81
2021/06/24 08:29:03;;;;;;;4.20;0.70;;;16.90;99.90;;;;;;5032155;28;20068;-81
2021/06/24 08:31:28;;;;;;;3.33;0.80;;;16.80;99.90;;;;;;5034143;28;20030;-81
2021/06/24 08:33:54;;;;;;;1.20;0.60;;;16.80;99.90;;;;;;5035964;28;20060;-81
2021/06/24 08:36:20;;;;;;;1.75;0.70;;;16.90;99.90;;;;;;5035840;28;20029;-81
2021/06/24 08:38:46;;;;;;;1.08;1.00;;;17.00;99.90;;;;;;5035688;28;20025;-81
2021/06/24 08:41:17;;;;;;;6.28;1.00;;;17.00;99.90;;;;;;5035769;28;20022;-82
2021/06/24 08:43:43;;;;;;;0.60;0.60;;;17.20;99.90;;;;;;5035754;28;20032;-82
2021/06/24 08:46:10;;;;;;;1.90;1.00;;;17.60;99.90;;;;;;5035228;28;20018;-82
2021/06/24 08:48:38;;;;;;;0.93;0.75;;;18.00;99.90;;;;;;5035690;28;20091;-82
2021/06/24 08:51:05;;;;;;;1.75;0.70;;;18.60;99.90;;;;;;5035401;28;20497;-82
2021/06/24 08:53:32;;;;;;;0.70;0.70;;;19.00;99.90;;;;;;5039100;28;20029;-82
2021/06/24 08:55:58;;;;;;;1.10;1.00;;;20.00;99.90;;;;;;5055351;28;20032;-82
2021/06/24 08:58:25;;;;;;;0.60;0.60;;;20.60;99.90;;;;;;5055305;28;20025;-82
2021/06/24 09:00:52;;;;;;;0.70;0.70;;;21.40;99.90;;;;;;5055053;28;20079;-82
2021/06/24 09:03:24;;;;;;;0.60;0.60;;;21.90;99.90;;;;;;5055131;28;20036;-82
2021/06/24 09:06:00;;;;;;;1.30;1.20;;;21.70;99.90;;;;;;5055048;28;20091;-82
2021/06/24 09:08:44;;;;;;;0.77;0.77;;;21.50;99.90;;;;;;5055134;28;20024;-82
2021/06/24 09:11:21;;;;;;;3.15;0.73;;;21.60;99.90;;;;;;5055053;28;20116;-82
2021/06/24 09:14:13;;;;;;;0.93;0.88;;;21.10;99.90;;;;;;5053761;28;20071;-82
2021/06/24 09:16:41;;;;;;;1.77;0.70;;;20.50;99.90;;;;;;5055093;28;20029;-82
2021/06/24 09:19:24;;;;;;;1.67;0.88;;;20.10;99.90;;;;;;5054925;28;20471;-82
2021/06/24 09:22:01;;;;;;;1.40;0.88;;;19.60;99.90;;;;;;5054695;28;20033;-82
2021/06/24 09:24:27;;;;;;;0.80;0.80;;;19.80;99.90;;;;;;5054930;28;20025;-82
2021/06/24 09:26:54;;;;;;;0.77;0.70;;;19.90;99.90;;;;;;5054866;28;20118;-82
2021/06/24 09:29:20;;;;;;;1.48;1.13;;;20.00;99.90;;;;;;5054414;28;20557;-82
2021/06/24 09:31:57;;;;;;;1.60;0.68;;;19.00;99.90;;;;;;5054842;28;20116;-82
2021/06/24 09:34:25;;;;;;;0.80;0.80;;;18.50;99.90;;;;;;5054755;28;20500;-82
2021/06/24 09:36:55;;;;;;;0.80;0.80;;;19.00;99.90;;;;;;5054620;28;20021;-82
2021/06/24 09:39:34;;;;;;;0.80;0.80;;;19.50;99.90;;;;;;5054496;28;20029;-82
2021/06/24 09:42:08;;;;;;;1.85;0.80;;;19.90;99.90;;;;;;5053699;28;20033;-82
2021/06/24 09:44:37;;;;;;;0.70;0.70;;;19.80;99.90;;;;;;5054188;28;20036;-82
2021/06/24 09:47:20;;;;;;;1.00;0.80;;;19.60;99.90;;;;;;5054571;28;20021;-82
2021/06/24 09:50:08;;;;;;;0.85;0.85;;;19.20;99.90;;;;;;5054997;28;20033;-82
2021/06/24 09:52:35;;;;;;;0.65;0.65;;;19.40;99.90;;;;;;5054224;28;20029;-82
2021/06/24 09:55:07;;;;;;;0.80;0.77;;;19.80;99.90;;;;;;5054270;28;20132;-82
2021/06/24 09:57:33;;;;;;;2.38;0.80;;;19.80;99.90;;;;;;5052483;28;20524;-82
2021/06/24 10:00:25;;;;;;;0.73;0.73;;;20.70;99.90;;;;;;5054312;28;20035;-82
2021/06/24 10:03:06;;;;;;;1.23;1.10;;;21.10;99.90;;;;;;5054118;28;20435;-82
2021/06/24 10:05:31;;;;;;;;;;;20.80;99.90;;;;;;5054437;28;20070;-82
2021/06/24 10:07:58;;;;;;;1.00;1.00;;;20.30;99.90;;;;;;5053952;28;19904;-82
2021/06/24 10:10:24;;;;;;;2.00;1.00;;;20.00;99.90;;;;;;5053980;28;20032;-82
2021/06/24 10:12:51;;;;;;;1.15;1.05;;;19.70;99.90;;;;;;5053816;28;20036;-82
2021/06/24 10:15:17;;;;;;;2.25;0.88;;;20.30;99.90;;;;;;5053861;28;20407;-82
2021/06/24 10:17:43;;;;;;;2.38;1.00;;;20.60;99.90;;;;;;5053931;28;20086;-82
2021/06/24 10:20:11;;;;;;;1.00;0.98;;;20.20;99.90;;;;;;5053704;28;20049;-82
2021/06/24 10:22:39;;;;;;;0.80;0.80;;;21.60;99.90;;;;;;5053589;28;20033;-82
2021/06/24 10:25:12;;;;;;;0.90;0.90;;;22.10;99.90;;;;;;5053740;28;20094;-82
2021/06/24 10:27:44;;;;;;;0.95;0.95;;;23.10;99.90;;;;;;5053429;28;20485;-82
2021/06/24 10:30:12;;;;;;;2.42;0.77;;;22.00;99.90;;;;;;5053505;28;20497;-82
2021/06/24 10:32:39;;;;;;;2.30;1.40;;;21.00;99.90;;;;;;5053536;28;20032;-82
2021/06/24 10:35:21;;;;;;;1.27;1.27;;;22.90;99.90;;;;;;5053522;28;20028;-82
2021/06/24 10:37:50;;;;;;;2.55;0.82;;;25.40;99.90;;;;;;5052122;28;20078;-82
2021/06/24 10:40:37;;;;;;;1.42;1.10;;;24.20;99.90;;;;;;5052158;28;20040;-82
2021/06/24 10:43:06;;;;;;;2.78;1.00;;;22.30;99.90;;;;;;5051763;28;20032;-83
2021/06/24 10:45:32;;;;;;;1.00;1.00;;;22.10;99.90;;;;;;5053159;28;20025;-82
2021/06/24 10:47:58;;;;;;;1.40;0.80;;;22.80;99.90;;;;;;5053440;28;20033;-82
2021/06/24 10:50:27;;;;;;;1.10;0.80;;;23.20;99.90;;;;;;5053223;28;20025;-83
2021/06/24 10:52:54;;;;;;;1.05;0.88;;;22.70;99.90;;;;;;5053222;28;20108;-82
2021/06/24 10:55:36;;;;;;;0.90;0.90;;;21.00;99.90;;;;;;5052911;28;20075;-82
2021/06/24 10:58:10;;;;;;;1.60;1.27;;;20.40;99.90;;;;;;5053193;28;20029;-82
2021/06/24 11:00:46;;;;;;;1.10;1.00;;;20.70;99.90;;;;;;5052889;28;20087;-82
2021/06/24 11:03:18;;;;;;;3.58;1.10;;;21.80;99.90;;;;;;5053132;28;20041;-82
2021/06/24 11:05:46;;;;;;;2.00;1.20;;;23.30;99.90;;;;;;5051655;28;20114;-82
2021/06/24 11:08:16;;;;;;;1.05;0.90;;;22.50;99.90;;;;;;5052953;28;20401;-83
2021/06/24 11:10:53;;;;;;;2.05;1.08;;;21.70;99.90;;;;;;5052680;28;20385;-82
2021/06/24 11:16:15;;;;;;;4.72;1.08;;;20.20;99.90;;;;;;5052736;28;20057;-82
2021/06/24 11:18:44;;;;;;;1.33;1.25;;;20.40;99.90;;;;;;5052398;28;20055;-82
2021/06/24 11:21:28;;;;;;;1.30;1.20;;;23.30;99.90;;;;;;5052754;28;20044;-82
2021/06/24 11:23:59;;;;;;;3.28;1.80;;;26.50;99.90;;;;;;5052606;28;20489;-82
2021/06/24 11:26:25;;;;;;;2.17;1.10;;;29.10;99.90;;;;;;5052291;28;20511;-83
2021/06/24 11:29:02;;;;;;;1.35;1.25;;;27.30;99.90;;;;;;5052686;28;20112;-83
2021/06/24 11:34:32;;;;;;;1.30;1.20;;;22.50;99.90;;;;;;5052709;28;20040;-83
2021/06/24 11:37:00;;;;;;;2.25;1.10;;;22.00;99.90;;;;;;5052588;28;20385;-82
2021/06/24 11:39:41;;;;;;;1.45;1.35;;;22.00;99.90;;;;;;5052070;28;20576;-82
2021/06/24 11:42:08;;;;;;;1.27;1.00;;;22.00;99.90;;;;;;5052425;28;20027;-82
2021/06/24 11:44:37;;;;;;;1.30;1.20;;;22.80;99.90;;;;;;5052326;28;20099;-82
2021/06/24 11:47:18;;;;;;;1.30;1.20;;;24.60;99.90;;;;;;5052447;28;20032;-82
2021/06/24 12:04:13;;;;;;;1.08;1.00;;;22.60;99.90;;;;;;5052150;28;20029;-82
2021/06/24 12:06:53;;;;;;;1.13;1.00;;;23.40;99.90;;;;;;5054914;28;20408;-82
2021/06/24 12:09:25;;;;;;;5.03;1.08;;;22.20;99.90;;;;;;5054655;28;20031;-82
2021/06/24 12:11:59;;;;;;;3.28;0.85;;;22.20;99.90;;;;;;5054868;28;20370;-83
2021/06/24 12:14:32;;;;;;;2.15;0.90;;;22.90;99.90;;;;;;5055011;28;20568;-82
2021/06/24 12:17:08;;;;;;;0.75;0.75;;;23.00;99.90;;;;;;5056211;28;20499;-82
2021/06/24 12:19:49;;;;;;;1.35;0.82;;;22.70;99.90;;;;;;5055955;28;20052;-82
2021/06/24 12:22:16;;;;;;;1.25;1.15;;;22.00;99.90;;;;;;5055997;28;20486;-83
2021/06/24 12:24:43;;;;;;;1.00;0.90;;;21.50;99.90;;;;;;5055443;28;20078;-82
2021/06/24 12:27:33;;;;;;;2.13;1.10;;;21.20;99.90;;;;;;5054634;28;20025;-82
2021/06/24 12:30:07;;;;;;;2.58;1.20;;;21.10;99.90;;;;;;5054557;28;20411;-83
2021/06/24 12:32:33;;;;;;;1.75;1.13;;;21.00;99.90;;;;;;5055749;28;20025;-82
2021/06/24 12:34:59;;;;;;;1.65;1.40;;;20.90;99.90;;;;;;5054648;28;20507;-82
2021/06/24 12:37:35;;;;;;;1.20;1.10;;;20.90;99.90;;;;;;5055467;28;20025;-82
2021/06/24 12:40:07;;;;;;;1.27;1.23;;;21.40;99.90;;;;;;5055786;28;20025;-82
2021/06/24 12:42:33;;;;;;;1.10;1.00;;;21.80;99.90;;;;;;5055553;28;20033;-82
2021/06/24 12:45:01;;;;;;;2.35;2.15;;;22.30;99.90;;;;;;5055347;28;20049;-82
2021/06/24 12:47:53;;;;;;;1.98;1.23;;;22.70;99.90;;;;;;5055554;28;20025;-82
2021/06/24 12:50:24;;;;;;;1.50;1.35;;;22.70;99.90;;;;;;5054482;28;20037;-82
2021/06/24 12:52:58;;;;;;;2.05;1.35;;;22.50;99.90;;;;;;5054845;28;20021;-82
2021/06/24 12:55:37;;;;;;;1.85;1.45;;;22.30;99.90;;;;;;5055309;28;20497;-82
2021/06/24 12:58:23;;;;;;;1.65;1.55;;;22.90;99.90;;;;;;5055399;28;20036;-82
2021/06/24 13:01:09;;;;;;;1.50;1.40;;;22.80;99.90;;;;;;5054852;28;20036;-82
2021/06/24 13:03:39;;;;;;;1.58;1.48;;;22.90;99.90;;;;;;5055310;28;20561;-83
2021/06/24 13:06:08;;;;;;;1.73;1.63;;;25.50;99.90;;;;;;5054823;28;20021;-82
2021/06/24 13:08:34;;;;;;;1.83;1.30;;;29.70;99.90;;;;;;5055220;28;20028;-83
2021/06/24 13:11:15;;;;;;;1.27;1.17;;;29.50;96.50;;;;;;5055033;28;20036;-83
2021/06/24 13:13:41;;;;;;;1.85;1.17;;;27.90;99.30;;;;;;5055301;28;20461;-83